createdAt,value
2017-04-20T00:00:01.459Z,4.1
2017-04-20T00:00:11.805Z,4.1
2017-04-20T00:00:21.447Z,4.1
2017-04-20T00:00:31.442Z,4.1
2017-04-20T00:00:41.095Z,4.1
2017-04-20T00:00:51.424Z,4.1
2017-04-20T00:01:01.440Z,4.1
2017-04-20T00:01:11.078Z,4.1
2017-04-20T00:01:21.067Z,4.1
2017-04-20T00:01:31.400Z,4
2017-04-20T00:01:41.392Z,4.1
2017-04-20T00:01:51.053Z,4.1
2017-04-20T00:02:01.380Z,4.1
2017-04-20T00:02:11.377Z,4.1
2017-04-20T00:02:21.372Z,4
2017-04-20T00:02:31.362Z,4.1
2017-04-20T00:02:41.020Z,4
2017-04-20T00:02:51.141Z,4
2017-04-20T00:03:01.341Z,4
2017-04-20T00:03:12.068Z,4
2017-04-20T00:03:21.330Z,4
2017-04-20T00:03:31.320Z,4
2017-04-20T00:03:40.748Z,4
2017-04-20T00:03:50.976Z,4
2017-04-20T00:04:01.306Z,4
2017-04-20T00:04:11.301Z,4.1
2017-04-20T00:04:21.289Z,4
2017-04-20T00:04:30.947Z,4.1
2017-04-20T00:04:40.945Z,4.1
2017-04-20T00:04:51.274Z,4.1
2017-04-20T00:05:00.724Z,4.1
2017-04-20T00:05:11.627Z,4.1
2017-04-20T00:05:21.256Z,4.1
2017-04-20T00:05:30.909Z,4.1
2017-04-20T00:05:41.238Z,4.1
2017-04-20T00:05:51.235Z,4.1
2017-04-20T00:06:01.226Z,4
2017-04-20T00:06:11.222Z,4
2017-04-20T00:06:21.213Z,4
2017-04-20T00:06:31.210Z,4
2017-04-20T00:06:41.043Z,4
2017-04-20T00:06:51.197Z,4
2017-04-20T00:07:01.187Z,4
2017-04-20T00:07:11.185Z,4
2017-04-20T00:07:20.842Z,4
2017-04-20T00:07:31.177Z,4
2017-04-20T00:07:41.465Z,4
2017-04-20T00:07:51.158Z,4
2017-04-20T00:08:01.154Z,4
2017-04-20T00:08:11.149Z,4
2017-04-20T00:08:21.494Z,4
2017-04-20T00:08:30.797Z,4
2017-04-20T00:08:40.812Z,4
2017-04-20T00:08:51.120Z,4
2017-04-20T00:09:01.115Z,4
2017-04-20T00:09:11.106Z,4
2017-04-20T00:09:21.101Z,4
2017-04-20T00:09:30.887Z,4
2017-04-20T00:09:41.090Z,4
2017-04-20T00:09:51.082Z,4
2017-04-20T00:10:01.437Z,4
2017-04-20T00:10:10.734Z,4
2017-04-20T00:10:20.727Z,4
2017-04-20T00:10:31.055Z,4
2017-04-20T00:10:41.057Z,4
2017-04-20T00:10:51.043Z,4
2017-04-20T00:11:01.055Z,4
2017-04-20T00:11:10.983Z,4
2017-04-20T00:11:20.690Z,3.9
2017-04-20T00:11:30.682Z,3.9
2017-04-20T00:11:40.339Z,3.9
2017-04-20T00:11:51.007Z,3.9
2017-04-20T00:12:00.998Z,3.9
2017-04-20T00:12:11.347Z,3.9
2017-04-20T00:12:20.984Z,3.9
2017-04-20T00:12:30.986Z,3.9
2017-04-20T00:12:41.226Z,3.9
2017-04-20T00:12:50.964Z,3.9
2017-04-20T00:13:00.960Z,3.9
2017-04-20T00:13:10.953Z,3.9
2017-04-20T00:13:20.960Z,3.9
2017-04-20T00:13:30.941Z,3.9
2017-04-20T00:13:40.731Z,3.8
2017-04-20T00:13:50.594Z,3.9
2017-04-20T00:14:00.922Z,3.8
2017-04-20T00:14:10.580Z,3.8
2017-04-20T00:14:20.913Z,3.8
2017-04-20T00:14:30.904Z,3.8
2017-04-20T00:14:40.563Z,3.8
2017-04-20T00:14:50.555Z,3.8
2017-04-20T00:15:00.883Z,3.8
2017-04-20T00:15:10.543Z,3.8
2017-04-20T00:15:20.869Z,3.8
2017-04-20T00:15:30.884Z,3.8
2017-04-20T00:15:40.962Z,3.8
2017-04-20T00:15:50.852Z,3.8
2017-04-20T00:16:00.848Z,3.8
2017-04-20T00:16:10.840Z,3.8
2017-04-20T00:16:20.832Z,3.8
2017-04-20T00:16:30.491Z,3.8
2017-04-20T00:16:40.820Z,3.8
2017-04-20T00:16:50.811Z,3.8
2017-04-20T00:17:00.807Z,3.8
2017-04-20T00:17:10.800Z,3.8
2017-04-20T00:17:20.792Z,3.8
2017-04-20T00:17:30.455Z,3.8
2017-04-20T00:17:41.032Z,3.8
2017-04-20T00:17:50.774Z,3.8
2017-04-20T00:18:00.768Z,3.8
2017-04-20T00:18:10.765Z,3.8
2017-04-20T00:18:20.756Z,3.8
2017-04-20T00:18:30.419Z,3.7
2017-04-20T00:18:40.744Z,3.8
2017-04-20T00:18:50.738Z,3.8
2017-04-20T00:19:00.398Z,3.8
2017-04-20T00:19:10.723Z,3.8
2017-04-20T00:19:20.381Z,3.8
2017-04-20T00:19:30.377Z,3.7
2017-04-20T00:19:40.371Z,3.7
2017-04-20T00:19:50.364Z,3.7
2017-04-20T00:20:00.693Z,3.7
2017-04-20T00:20:10.687Z,3.7
2017-04-20T00:20:20.679Z,3.7
2017-04-20T00:20:30.676Z,3.7
2017-04-20T00:20:39.996Z,3.7
2017-04-20T00:20:50.661Z,3.7
2017-04-20T00:21:00.652Z,3.8
2017-04-20T00:21:10.646Z,3.8
2017-04-20T00:21:21.302Z,3.8
2017-04-20T00:21:30.646Z,3.7
2017-04-20T00:21:40.630Z,3.7
2017-04-20T00:21:50.624Z,3.7
2017-04-20T00:22:00.281Z,3.7
2017-04-20T00:22:10.607Z,3.7
2017-04-20T00:22:20.602Z,3.7
2017-04-20T00:22:30.594Z,3.7
2017-04-20T00:22:40.591Z,3.7
2017-04-20T00:22:50.591Z,3.7
2017-04-20T00:23:00.930Z,3.7
2017-04-20T00:23:10.572Z,3.7
2017-04-20T00:23:20.566Z,3.7
2017-04-20T00:23:30.572Z,3.7
2017-04-20T00:23:40.215Z,3.7
2017-04-20T00:23:50.552Z,3.7
2017-04-20T00:24:00.541Z,3.8
2017-04-20T00:24:10.534Z,3.8
2017-04-20T00:24:20.735Z,3.8
2017-04-20T00:24:30.521Z,3.7
2017-04-20T00:24:41.131Z,3.8
2017-04-20T00:24:50.171Z,3.8
2017-04-20T00:25:00.504Z,3.8
2017-04-20T00:25:10.495Z,3.8
2017-04-20T00:25:20.485Z,3.8
2017-04-20T00:25:30.483Z,3.8
2017-04-20T00:25:40.478Z,3.8
2017-04-20T00:25:50.466Z,3.8
2017-04-20T00:26:00.459Z,3.8
2017-04-20T00:26:10.454Z,3.8
2017-04-20T00:26:20.449Z,3.8
2017-04-20T00:26:30.443Z,3.8
2017-04-20T00:26:40.435Z,3.8
2017-04-20T00:26:50.433Z,3.8
2017-04-20T00:27:00.423Z,3.8
2017-04-20T00:27:10.421Z,3.8
2017-04-20T00:27:20.413Z,3.7
2017-04-20T00:27:30.405Z,3.7
2017-04-20T00:27:40.402Z,3.7
2017-04-20T00:27:50.393Z,3.7
2017-04-20T00:28:00.387Z,3.7
2017-04-20T00:28:10.381Z,3.7
2017-04-20T00:28:20.373Z,3.7
2017-04-20T00:28:30.721Z,3.7
2017-04-20T00:28:40.360Z,3.7
2017-04-20T00:28:50.356Z,3.7
2017-04-20T00:29:00.347Z,3.7
2017-04-20T00:29:10.373Z,3.7
2017-04-20T00:29:20.007Z,3.7
2017-04-20T00:29:30.329Z,3.7
2017-04-20T00:29:40.011Z,3.7
2017-04-20T00:29:49.978Z,3.7
2017-04-20T00:30:00.313Z,3.7
2017-04-20T00:30:10.301Z,3.7
2017-04-20T00:30:20.300Z,3.7
2017-04-20T00:30:30.289Z,3.7
2017-04-20T00:30:40.286Z,3.7
2017-04-20T00:30:50.300Z,3.7
2017-04-20T00:31:00.273Z,3.7
2017-04-20T00:31:10.266Z,3.6
2017-04-20T00:31:19.923Z,3.6
2017-04-20T00:31:29.916Z,3.6
2017-04-20T00:31:40.012Z,3.6
2017-04-20T00:31:50.239Z,3.6
2017-04-20T00:32:00.233Z,3.5
2017-04-20T00:32:09.891Z,3.5
2017-04-20T00:32:20.220Z,3.5
2017-04-20T00:32:29.878Z,3.5
2017-04-20T00:32:40.456Z,3.5
2017-04-20T00:32:50.216Z,3.6
2017-04-20T00:33:00.193Z,3.5
2017-04-20T00:33:10.556Z,3.6
2017-04-20T00:33:20.184Z,3.5
2017-04-20T00:33:29.840Z,3.5
2017-04-20T00:33:40.241Z,3.6
2017-04-20T00:33:49.828Z,3.6
2017-04-20T00:34:00.155Z,3.6
2017-04-20T00:34:10.151Z,3.6
2017-04-20T00:34:20.141Z,3.6
2017-04-20T00:34:30.134Z,3.6
2017-04-20T00:34:40.127Z,3.6
2017-04-20T00:34:50.127Z,3.6
2017-04-20T00:35:00.119Z,3.6
2017-04-20T00:35:10.112Z,3.6
2017-04-20T00:35:20.117Z,3.6
2017-04-20T00:35:29.760Z,3.6
2017-04-20T00:35:40.452Z,3.5
2017-04-20T00:35:50.085Z,3.5
2017-04-20T00:35:59.743Z,3.5
2017-04-20T00:36:10.074Z,3.5
2017-04-20T00:36:20.063Z,3.5
2017-04-20T00:36:30.073Z,3.5
2017-04-20T00:36:39.721Z,3.5
2017-04-20T00:36:50.047Z,3.5
2017-04-20T00:37:00.250Z,3.5
2017-04-20T00:37:10.032Z,3.5
2017-04-20T00:37:19.696Z,3.5
2017-04-20T00:37:30.031Z,3.5
2017-04-20T00:37:40.264Z,3.5
2017-04-20T00:37:50.007Z,3.5
2017-04-20T00:37:59.670Z,3.5
2017-04-20T00:38:09.993Z,3.5
2017-04-20T00:38:19.654Z,3.5
2017-04-20T00:38:29.983Z,3.5
2017-04-20T00:38:39.977Z,3.5
2017-04-20T00:38:49.969Z,3.5
2017-04-20T00:38:59.962Z,3.5
2017-04-20T00:39:09.956Z,3.5
2017-04-20T00:39:19.949Z,3.5
2017-04-20T00:39:29.943Z,3.5
2017-04-20T00:39:39.602Z,3.5
2017-04-20T00:39:49.936Z,3.5
2017-04-20T00:39:59.925Z,3.5
2017-04-20T00:40:09.587Z,3.5
2017-04-20T00:40:19.908Z,3.5
2017-04-20T00:40:29.906Z,3.5
2017-04-20T00:40:39.900Z,3.5
2017-04-20T00:40:49.561Z,3.5
2017-04-20T00:40:59.554Z,3.5
2017-04-20T00:41:09.879Z,3.6
2017-04-20T00:41:19.875Z,3.6
2017-04-20T00:41:30.329Z,3.6
2017-04-20T00:41:38.854Z,3.6
2017-04-20T00:41:49.856Z,3.6
2017-04-20T00:41:59.513Z,3.5
2017-04-20T00:42:09.505Z,3.5
2017-04-20T00:42:19.835Z,3.5
2017-04-20T00:42:29.829Z,3.5
2017-04-20T00:42:40.075Z,3.5
2017-04-20T00:42:49.481Z,3.5
2017-04-20T00:42:59.476Z,3.5
2017-04-20T00:43:09.465Z,3.5
2017-04-20T00:43:19.797Z,3.5
2017-04-20T00:43:29.787Z,3.5
2017-04-20T00:43:39.451Z,3.5
2017-04-20T00:43:49.777Z,3.5
2017-04-20T00:43:59.771Z,3.5
2017-04-20T00:44:09.093Z,3.5
2017-04-20T00:44:19.423Z,3.5
2017-04-20T00:44:29.754Z,3.5
2017-04-20T00:44:39.411Z,3.5
2017-04-20T00:44:49.406Z,3.5
2017-04-20T00:44:59.397Z,3.5
2017-04-20T00:45:09.392Z,3.5
2017-04-20T00:45:19.386Z,3.5
2017-04-20T00:45:29.711Z,3.5
2017-04-20T00:45:39.035Z,3.5
2017-04-20T00:45:49.700Z,3.5
2017-04-20T00:46:00.070Z,3.4
2017-04-20T00:46:09.688Z,3.4
2017-04-20T00:46:19.012Z,3.4
2017-04-20T00:46:29.339Z,3.4
2017-04-20T00:46:39.667Z,3.4
2017-04-20T00:46:49.332Z,3.4
2017-04-20T00:46:59.654Z,3.4
2017-04-20T00:47:09.653Z,3.4
2017-04-20T00:47:19.307Z,3.4
2017-04-20T00:47:29.304Z,3.4
2017-04-20T00:47:39.630Z,3.4
2017-04-20T00:47:48.976Z,3.4
2017-04-20T00:47:59.617Z,3.4
2017-04-20T00:48:09.613Z,3.4
2017-04-20T00:48:19.950Z,3.4
2017-04-20T00:48:29.595Z,3.4
2017-04-20T00:48:39.256Z,3.4
2017-04-20T00:48:49.584Z,3.4
2017-04-20T00:48:59.582Z,3.4
2017-04-20T00:49:09.571Z,3.4
2017-04-20T00:49:19.229Z,3.4
2017-04-20T00:49:29.226Z,3.4
2017-04-20T00:49:39.552Z,3.3
2017-04-20T00:49:49.546Z,3.4
2017-04-20T00:49:59.538Z,3.4
2017-04-20T00:50:09.200Z,3.4
2017-04-20T00:50:19.531Z,3.3
2017-04-20T00:50:29.224Z,3.4
2017-04-20T00:50:39.522Z,3.3
2017-04-20T00:50:49.508Z,3.3
2017-04-20T00:50:59.501Z,3.4
2017-04-20T00:51:08.824Z,3.4
2017-04-20T00:51:19.487Z,3.4
2017-04-20T00:51:29.148Z,3.3
2017-04-20T00:51:39.202Z,3.3
2017-04-20T00:51:49.134Z,3.3
2017-04-20T00:51:59.462Z,3.3
2017-04-20T00:52:09.457Z,3.3
2017-04-20T00:52:19.451Z,3.3
2017-04-20T00:52:28.776Z,3.3
2017-04-20T00:52:39.433Z,3.3
2017-04-20T00:52:49.451Z,3.3
2017-04-20T00:52:59.785Z,3.3
2017-04-20T00:53:09.420Z,3.3
2017-04-20T00:53:19.412Z,3.3
2017-04-20T00:53:29.406Z,3.3
2017-04-20T00:53:39.188Z,3.3
2017-04-20T00:53:49.393Z,3.3
2017-04-20T00:53:58.713Z,3.3
2017-04-20T00:54:09.381Z,3.3
2017-04-20T00:54:19.372Z,3.3
2017-04-20T00:54:29.032Z,3.3
2017-04-20T00:54:39.025Z,3.3
2017-04-20T00:54:49.018Z,3.3
2017-04-20T00:54:59.011Z,3.3
2017-04-20T00:55:09.342Z,3.3
2017-04-20T00:55:19.335Z,3.3
2017-04-20T00:55:28.991Z,3.2
2017-04-20T00:55:38.983Z,3.3
2017-04-20T00:55:49.318Z,3.3
2017-04-20T00:55:58.972Z,3.3
2017-04-20T00:56:09.302Z,3.3
2017-04-20T00:56:18.961Z,3.3
2017-04-20T00:56:29.291Z,3.3
2017-04-20T00:56:39.286Z,3.4
2017-04-20T00:56:49.275Z,3.3
2017-04-20T00:56:59.269Z,3.3
2017-04-20T00:57:08.931Z,3.3
2017-04-20T00:57:19.298Z,3.3
2017-04-20T00:57:29.252Z,3.3
2017-04-20T00:57:39.510Z,3.3
2017-04-20T00:57:48.568Z,3.4
2017-04-20T00:57:59.232Z,3.4
2017-04-20T00:58:08.888Z,3.4
2017-04-20T00:58:18.884Z,3.4
2017-04-20T00:58:29.212Z,3.3
2017-04-20T00:58:39.206Z,3.4
2017-04-20T00:58:48.534Z,3.4
2017-04-20T00:58:59.191Z,3.4
2017-04-20T00:59:08.854Z,3.4
2017-04-20T00:59:19.183Z,3.3
2017-04-20T00:59:29.303Z,3.3
2017-04-20T00:59:38.830Z,3.3
2017-04-20T00:59:48.491Z,3.3
2017-04-20T00:59:59.154Z,3.3
2017-04-20T01:00:09.147Z,3.3
2017-04-20T01:00:19.138Z,3.3
2017-04-20T01:00:28.799Z,3.3
2017-04-20T01:00:39.130Z,3.3
2017-04-20T01:00:49.119Z,3.3
2017-04-20T01:00:59.491Z,3.3
2017-04-20T01:01:08.774Z,3.3
2017-04-20T01:01:19.103Z,3.3
2017-04-20T01:01:29.096Z,3.3
2017-04-20T01:01:39.091Z,3.3
2017-04-20T01:01:48.863Z,3.3
2017-04-20T01:01:59.074Z,3.2
2017-04-20T01:02:09.069Z,3.3
2017-04-20T01:02:19.064Z,3.3
2017-04-20T01:02:28.722Z,3.3
2017-04-20T01:02:38.633Z,3.3
2017-04-20T01:02:48.707Z,3.3
2017-04-20T01:02:59.036Z,3.3
2017-04-20T01:03:08.694Z,3.3
2017-04-20T01:03:19.027Z,3.3
2017-04-20T01:03:29.017Z,3.3
2017-04-20T01:03:38.344Z,3.3
2017-04-20T01:03:49.007Z,3.3
2017-04-20T01:03:58.327Z,3.3
2017-04-20T01:04:08.659Z,3.3
2017-04-20T01:04:19.335Z,3.3
2017-04-20T01:04:28.645Z,3.3
2017-04-20T01:04:38.975Z,3.3
2017-04-20T01:04:48.967Z,3.3
2017-04-20T01:04:58.960Z,3.3
2017-04-20T01:05:09.296Z,3.3
2017-04-20T01:05:18.615Z,3.3
2017-04-20T01:05:28.957Z,3.3
2017-04-20T01:05:38.935Z,3.3
2017-04-20T01:05:48.256Z,3.3
2017-04-20T01:05:58.923Z,3.3
2017-04-20T01:06:08.933Z,3.3
2017-04-20T01:06:18.907Z,3.3
2017-04-20T01:06:28.569Z,3.3
2017-04-20T01:06:38.898Z,3.3
2017-04-20T01:06:48.222Z,3.3
2017-04-20T01:06:58.886Z,3.3
2017-04-20T01:07:08.879Z,3.3
2017-04-20T01:07:18.533Z,3.3
2017-04-20T01:07:28.534Z,3.3
2017-04-20T01:07:39.107Z,3.3
2017-04-20T01:07:48.851Z,3.3
2017-04-20T01:07:58.509Z,3.3
2017-04-20T01:08:08.167Z,3.3
2017-04-20T01:08:18.835Z,3.3
2017-04-20T01:08:28.493Z,3.3
2017-04-20T01:08:38.817Z,3.3
2017-04-20T01:08:48.474Z,3.3
2017-04-20T01:08:58.135Z,3.3
2017-04-20T01:09:08.800Z,3.3
2017-04-20T01:09:18.793Z,3.3
2017-04-20T01:09:28.455Z,3.3
2017-04-20T01:09:38.836Z,3.3
2017-04-20T01:09:48.775Z,3.3
2017-04-20T01:09:58.768Z,3.3
2017-04-20T01:10:08.763Z,3.3
2017-04-20T01:10:18.754Z,3.3
2017-04-20T01:10:28.411Z,3.3
2017-04-20T01:10:38.743Z,3.3
2017-04-20T01:10:48.401Z,3.2
2017-04-20T01:10:58.395Z,3.2
2017-04-20T01:11:08.722Z,3.3
2017-04-20T01:11:18.378Z,3.2
2017-04-20T01:11:28.392Z,3.2
2017-04-20T01:11:38.702Z,3.2
2017-04-20T01:11:48.362Z,3.2
2017-04-20T01:11:58.688Z,3.3
2017-04-20T01:12:08.686Z,3.2
2017-04-20T01:12:19.031Z,3.2
2017-04-20T01:12:28.672Z,3.2
2017-04-20T01:12:38.667Z,3.2
2017-04-20T01:12:48.657Z,3.2
2017-04-20T01:12:58.448Z,3.2
2017-04-20T01:13:08.649Z,3.2
2017-04-20T01:13:18.639Z,3.2
2017-04-20T01:13:28.629Z,3.2
2017-04-20T01:13:38.661Z,3.2
2017-04-20T01:13:48.284Z,3.2
2017-04-20T01:13:57.944Z,3.2
2017-04-20T01:14:07.935Z,3.2
2017-04-20T01:14:18.267Z,3.2
2017-04-20T01:14:28.594Z,3.2
2017-04-20T01:14:38.588Z,3.2
2017-04-20T01:14:48.933Z,3.2
2017-04-20T01:14:58.571Z,3.2
2017-04-20T01:15:08.567Z,3.2
2017-04-20T01:15:18.232Z,3.2
2017-04-20T01:15:28.555Z,3.2
2017-04-20T01:15:38.549Z,3.2
2017-04-20T01:15:48.207Z,3.2
2017-04-20T01:15:58.534Z,3.2
2017-04-20T01:16:08.194Z,3.2
2017-04-20T01:16:18.522Z,3.2
2017-04-20T01:16:28.515Z,3.2
2017-04-20T01:16:38.174Z,3.2
2017-04-20T01:16:47.832Z,3.2
2017-04-20T01:16:58.496Z,3.2
2017-04-20T01:17:08.489Z,3.2
2017-04-20T01:17:18.147Z,3.1
2017-04-20T01:17:28.480Z,3.1
2017-04-20T01:17:38.136Z,3.1
2017-04-20T01:17:47.792Z,3.1
2017-04-20T01:17:58.457Z,3.1
2017-04-20T01:18:08.116Z,3.1
2017-04-20T01:18:18.443Z,3.1
2017-04-20T01:18:28.107Z,3.1
2017-04-20T01:18:38.810Z,3.1
2017-04-20T01:18:48.090Z,3.1
2017-04-20T01:18:58.417Z,3.1
2017-04-20T01:19:08.412Z,3.1
2017-04-20T01:19:18.070Z,3.1
2017-04-20T01:19:28.065Z,3.1
2017-04-20T01:19:38.396Z,3.1
2017-04-20T01:19:48.422Z,3.1
2017-04-20T01:19:58.735Z,3.1
2017-04-20T01:20:08.729Z,3.1
2017-04-20T01:20:18.040Z,3.1
2017-04-20T01:20:28.026Z,3.1
2017-04-20T01:20:38.355Z,3.1
2017-04-20T01:20:48.138Z,3
2017-04-20T01:20:58.004Z,3
2017-04-20T01:21:08.333Z,3.1
2017-04-20T01:21:18.326Z,3.1
2017-04-20T01:21:28.322Z,3.1
2017-04-20T01:21:38.317Z,3.1
2017-04-20T01:21:48.309Z,3.1
2017-04-20T01:21:57.971Z,3.1
2017-04-20T01:22:08.294Z,3.1
2017-04-20T01:22:18.290Z,3.1
2017-04-20T01:22:28.282Z,3.1
2017-04-20T01:22:37.941Z,3.1
2017-04-20T01:22:47.936Z,3.1
2017-04-20T01:22:57.929Z,3.1
2017-04-20T01:23:08.003Z,3.1
2017-04-20T01:23:18.250Z,3.1
2017-04-20T01:23:27.576Z,3.1
2017-04-20T01:23:37.906Z,3.1
2017-04-20T01:23:48.232Z,3.1
2017-04-20T01:23:58.225Z,3.1
2017-04-20T01:24:07.549Z,3.1
2017-04-20T01:24:18.213Z,3.1
2017-04-20T01:24:27.870Z,3.1
2017-04-20T01:24:38.199Z,3.1
2017-04-20T01:24:48.195Z,3
2017-04-20T01:24:58.188Z,3
2017-04-20T01:25:07.847Z,3
2017-04-20T01:25:17.841Z,3
2017-04-20T01:25:28.171Z,3
2017-04-20T01:25:38.161Z,3
2017-04-20T01:25:48.154Z,3
2017-04-20T01:25:58.154Z,3
2017-04-20T01:26:07.807Z,3
2017-04-20T01:26:18.135Z,3
2017-04-20T01:26:28.546Z,3
2017-04-20T01:26:38.124Z,3
2017-04-20T01:26:48.117Z,3
2017-04-20T01:26:58.111Z,3
2017-04-20T01:27:08.100Z,3
2017-04-20T01:27:18.454Z,3
2017-04-20T01:27:28.245Z,3
2017-04-20T01:27:38.000Z,3
2017-04-20T01:27:48.077Z,3
2017-04-20T01:27:58.072Z,3
2017-04-20T01:28:07.728Z,3
2017-04-20T01:28:18.060Z,3
2017-04-20T01:28:28.050Z,3
2017-04-20T01:28:38.046Z,3
2017-04-20T01:28:47.423Z,3
2017-04-20T01:28:58.034Z,3
2017-04-20T01:29:08.027Z,3
2017-04-20T01:29:18.051Z,3
2017-04-20T01:29:27.676Z,3
2017-04-20T01:29:38.006Z,3
2017-04-20T01:29:47.330Z,3
2017-04-20T01:29:58.066Z,3
2017-04-20T01:30:07.653Z,3
2017-04-20T01:30:17.649Z,3
2017-04-20T01:30:27.978Z,3
2017-04-20T01:30:37.632Z,3
2017-04-20T01:30:47.961Z,3
2017-04-20T01:30:57.621Z,3
2017-04-20T01:31:07.949Z,3
2017-04-20T01:31:17.607Z,3
2017-04-20T01:31:27.937Z,3
2017-04-20T01:31:37.931Z,3
2017-04-20T01:31:47.922Z,3
2017-04-20T01:31:57.595Z,3
2017-04-20T01:32:07.909Z,3
2017-04-20T01:32:17.577Z,3
2017-04-20T01:32:27.562Z,3
2017-04-20T01:32:38.141Z,3
2017-04-20T01:32:48.234Z,3
2017-04-20T01:32:57.900Z,3
2017-04-20T01:33:07.871Z,3
2017-04-20T01:33:17.528Z,3
2017-04-20T01:33:27.860Z,3.1
2017-04-20T01:33:37.851Z,3.1
2017-04-20T01:33:47.505Z,3.1
2017-04-20T01:33:57.501Z,3.1
2017-04-20T01:34:07.833Z,3
2017-04-20T01:34:17.829Z,3.1
2017-04-20T01:34:27.482Z,3
2017-04-20T01:34:37.477Z,3
2017-04-20T01:34:47.808Z,3
2017-04-20T01:34:57.467Z,3
2017-04-20T01:35:07.790Z,3
2017-04-20T01:35:17.788Z,3
2017-04-20T01:35:27.778Z,3
2017-04-20T01:35:37.776Z,3
2017-04-20T01:35:47.770Z,3
2017-04-20T01:35:57.762Z,3
2017-04-20T01:36:08.121Z,3
2017-04-20T01:36:17.413Z,3
2017-04-20T01:36:27.742Z,3
2017-04-20T01:36:37.734Z,3
2017-04-20T01:36:47.730Z,3
2017-04-20T01:36:57.724Z,3
2017-04-20T01:37:07.729Z,3.1
2017-04-20T01:37:17.710Z,3.1
2017-04-20T01:37:27.366Z,3
2017-04-20T01:37:37.694Z,3
2017-04-20T01:37:47.769Z,3
2017-04-20T01:37:57.348Z,3
2017-04-20T01:38:07.676Z,3
2017-04-20T01:38:17.671Z,3
2017-04-20T01:38:27.662Z,3
2017-04-20T01:38:37.658Z,3
2017-04-20T01:38:47.650Z,3
2017-04-20T01:38:57.310Z,3
2017-04-20T01:39:07.301Z,3
2017-04-20T01:39:17.635Z,3
2017-04-20T01:39:27.627Z,3
2017-04-20T01:39:37.619Z,3
2017-04-20T01:39:47.613Z,3
2017-04-20T01:39:57.604Z,3
2017-04-20T01:40:07.270Z,3
2017-04-20T01:40:17.594Z,3
2017-04-20T01:40:27.589Z,3
2017-04-20T01:40:37.579Z,3
2017-04-20T01:40:47.573Z,3
2017-04-20T01:40:57.235Z,3
2017-04-20T01:41:07.564Z,3
2017-04-20T01:41:17.554Z,3
2017-04-20T01:41:27.546Z,3
2017-04-20T01:41:37.543Z,3
2017-04-20T01:41:47.537Z,3
2017-04-20T01:41:57.529Z,3
2017-04-20T01:42:07.184Z,3
2017-04-20T01:42:17.516Z,3
2017-04-20T01:42:27.509Z,3
2017-04-20T01:42:37.499Z,3
2017-04-20T01:42:47.497Z,3
2017-04-20T01:42:57.150Z,3
2017-04-20T01:43:07.483Z,3
2017-04-20T01:43:17.479Z,3
2017-04-20T01:43:27.132Z,3
2017-04-20T01:43:37.463Z,3
2017-04-20T01:43:47.130Z,3
2017-04-20T01:43:57.452Z,3
2017-04-20T01:44:07.113Z,3
2017-04-20T01:44:17.103Z,3
2017-04-20T01:44:27.431Z,3
2017-04-20T01:44:37.424Z,3
2017-04-20T01:44:47.083Z,3
2017-04-20T01:44:56.741Z,3
2017-04-20T01:45:07.411Z,3
2017-04-20T01:45:17.062Z,3
2017-04-20T01:45:27.392Z,3
2017-04-20T01:45:37.385Z,3
2017-04-20T01:45:47.379Z,3
2017-04-20T01:45:57.369Z,3
2017-04-20T01:46:07.028Z,3
2017-04-20T01:46:17.022Z,3
2017-04-20T01:46:27.355Z,3
2017-04-20T01:46:37.011Z,3
2017-04-20T01:46:47.504Z,3
2017-04-20T01:46:57.331Z,3
2017-04-20T01:47:06.993Z,2.9
2017-04-20T01:47:17.319Z,2.9
2017-04-20T01:47:27.316Z,2.9
2017-04-20T01:47:37.330Z,2.9
2017-04-20T01:47:47.303Z,2.9
2017-04-20T01:47:57.294Z,2.9
2017-04-20T01:48:06.955Z,2.9
2017-04-20T01:48:16.945Z,2.9
2017-04-20T01:48:26.945Z,2.9
2017-04-20T01:48:36.936Z,2.9
2017-04-20T01:48:47.262Z,2.9
2017-04-20T01:48:57.259Z,2.9
2017-04-20T01:49:07.250Z,2.9
2017-04-20T01:49:16.910Z,2.9
2017-04-20T01:49:27.240Z,2.9
2017-04-20T01:49:36.896Z,2.9
2017-04-20T01:49:47.581Z,2.9
2017-04-20T01:49:57.220Z,2.9
2017-04-20T01:50:06.875Z,2.9
2017-04-20T01:50:16.870Z,2.9
2017-04-20T01:50:27.201Z,2.9
2017-04-20T01:50:37.192Z,2.9
2017-04-20T01:50:46.848Z,2.9
2017-04-20T01:50:57.531Z,2.9
2017-04-20T01:51:07.170Z,2.9
2017-04-20T01:51:16.907Z,2.9
2017-04-20T01:51:27.178Z,2.8
2017-04-20T01:51:37.156Z,2.9
2017-04-20T01:51:46.478Z,2.9
2017-04-20T01:51:57.138Z,2.9
2017-04-20T01:52:07.135Z,2.9
2017-04-20T01:52:16.792Z,2.9
2017-04-20T01:52:27.123Z,2.9
2017-04-20T01:52:37.031Z,2.9
2017-04-20T01:52:47.111Z,2.9
2017-04-20T01:52:57.449Z,2.8
2017-04-20T01:53:07.096Z,2.8
2017-04-20T01:53:16.753Z,2.8
2017-04-20T01:53:27.083Z,2.8
2017-04-20T01:53:37.073Z,2.8
2017-04-20T01:53:47.074Z,2.8
2017-04-20T01:53:57.061Z,2.8
2017-04-20T01:54:06.720Z,2.8
2017-04-20T01:54:17.050Z,2.8
2017-04-20T01:54:27.044Z,2.8
2017-04-20T01:54:37.037Z,2.8
2017-04-20T01:54:47.044Z,2.8
2017-04-20T01:54:57.020Z,2.8
2017-04-20T01:55:07.390Z,2.8
2017-04-20T01:55:16.674Z,2.8
2017-04-20T01:55:27.003Z,2.8
2017-04-20T01:55:36.662Z,2.8
2017-04-20T01:55:47.341Z,2.8
2017-04-20T01:55:56.650Z,2.8
2017-04-20T01:56:06.307Z,2.8
2017-04-20T01:56:17.322Z,2.8
2017-04-20T01:56:26.965Z,2.8
2017-04-20T01:56:36.956Z,2.8
2017-04-20T01:56:46.282Z,2.8
2017-04-20T01:56:56.945Z,2.8
2017-04-20T01:57:06.938Z,2.8
2017-04-20T01:57:16.929Z,2.8
2017-04-20T01:57:26.924Z,2.8
2017-04-20T01:57:37.524Z,2.8
2017-04-20T01:57:46.911Z,2.8
2017-04-20T01:57:56.570Z,2.8
2017-04-20T01:58:06.568Z,2.8
2017-04-20T01:58:16.893Z,2.8
2017-04-20T01:58:26.553Z,2.8
2017-04-20T01:58:36.882Z,2.8
2017-04-20T01:58:46.208Z,2.8
2017-04-20T01:58:56.867Z,2.8
2017-04-20T01:59:06.863Z,2.8
2017-04-20T01:59:16.853Z,2.8
2017-04-20T01:59:26.850Z,2.8
2017-04-20T01:59:36.509Z,2.8
2017-04-20T01:59:46.498Z,2.8
2017-04-20T01:59:57.182Z,2.8
2017-04-20T02:00:06.821Z,2.8
2017-04-20T02:00:17.356Z,2.8
2017-04-20T02:00:26.473Z,2.8
2017-04-20T02:00:36.802Z,2.8
2017-04-20T02:00:46.797Z,2.8
2017-04-20T02:00:56.455Z,2.8
2017-04-20T02:01:06.785Z,2.8
2017-04-20T02:01:16.775Z,2.7
2017-04-20T02:01:26.983Z,2.7
2017-04-20T02:01:36.765Z,2.8
2017-04-20T02:01:46.758Z,2.8
2017-04-20T02:01:56.749Z,2.8
2017-04-20T02:02:06.741Z,2.7
2017-04-20T02:02:16.737Z,2.7
2017-04-20T02:02:26.737Z,2.7
2017-04-20T02:02:36.727Z,2.7
2017-04-20T02:02:47.070Z,2.7
2017-04-20T02:02:56.710Z,2.7
2017-04-20T02:03:06.371Z,2.7
2017-04-20T02:03:16.730Z,2.7
2017-04-20T02:03:26.694Z,2.8
2017-04-20T02:03:36.689Z,2.8
2017-04-20T02:03:46.346Z,2.8
2017-04-20T02:03:57.031Z,2.7
2017-04-20T02:04:06.669Z,2.7
2017-04-20T02:04:16.660Z,2.7
2017-04-20T02:04:26.651Z,2.7
2017-04-20T02:04:36.650Z,2.7
2017-04-20T02:04:46.640Z,2.7
2017-04-20T02:04:56.635Z,2.7
2017-04-20T02:05:06.628Z,2.7
2017-04-20T02:05:16.620Z,2.7
2017-04-20T02:05:26.617Z,2.7
2017-04-20T02:05:36.608Z,2.7
2017-04-20T02:05:46.602Z,2.7
2017-04-20T02:05:56.262Z,2.7
2017-04-20T02:06:06.586Z,2.7
2017-04-20T02:06:16.581Z,2.7
2017-04-20T02:06:26.575Z,2.7
2017-04-20T02:06:36.568Z,2.7
2017-04-20T02:06:46.915Z,2.7
2017-04-20T02:06:56.555Z,2.7
2017-04-20T02:07:06.553Z,2.7
2017-04-20T02:07:16.546Z,2.7
2017-04-20T02:07:26.535Z,2.8
2017-04-20T02:07:36.530Z,2.8
2017-04-20T02:07:46.526Z,2.8
2017-04-20T02:07:56.518Z,2.8
2017-04-20T02:08:06.512Z,2.8
2017-04-20T02:08:16.859Z,2.8
2017-04-20T02:08:26.501Z,2.8
2017-04-20T02:08:36.157Z,2.7
2017-04-20T02:08:46.483Z,2.7
2017-04-20T02:08:56.145Z,2.8
2017-04-20T02:09:06.472Z,2.8
2017-04-20T02:09:16.932Z,2.8
2017-04-20T02:09:26.457Z,2.7
2017-04-20T02:09:36.450Z,2.7
2017-04-20T02:09:46.445Z,2.7
2017-04-20T02:09:56.436Z,2.7
2017-04-20T02:10:06.094Z,2.7
2017-04-20T02:10:16.425Z,2.7
2017-04-20T02:10:26.689Z,2.7
2017-04-20T02:10:36.413Z,2.7
2017-04-20T02:10:46.404Z,2.7
2017-04-20T02:10:56.398Z,2.7
2017-04-20T02:11:06.394Z,2.7
2017-04-20T02:11:16.386Z,2.7
2017-04-20T02:11:26.379Z,2.7
2017-04-20T02:11:36.040Z,2.7
2017-04-20T02:11:46.388Z,2.7
2017-04-20T02:11:55.354Z,2.6
2017-04-20T02:12:06.022Z,2.6
2017-04-20T02:12:16.349Z,2.6
2017-04-20T02:12:26.340Z,2.7
2017-04-20T02:12:36.337Z,2.7
2017-04-20T02:12:46.371Z,2.7
2017-04-20T02:12:55.317Z,2.7
2017-04-20T02:13:06.314Z,2.7
2017-04-20T02:13:16.307Z,2.7
2017-04-20T02:13:26.300Z,2.7
2017-04-20T02:13:36.302Z,2.7
2017-04-20T02:13:46.289Z,2.7
2017-04-20T02:13:55.947Z,2.7
2017-04-20T02:14:05.939Z,2.7
2017-04-20T02:14:16.272Z,2.7
2017-04-20T02:14:26.264Z,2.7
2017-04-20T02:14:36.254Z,2.7
2017-04-20T02:14:45.244Z,2.6
2017-04-20T02:14:55.593Z,2.6
2017-04-20T02:15:06.253Z,2.6
2017-04-20T02:15:16.232Z,2.6
2017-04-20T02:15:26.222Z,2.6
2017-04-20T02:15:36.220Z,2.7
2017-04-20T02:15:45.542Z,2.7
2017-04-20T02:15:56.206Z,2.6
2017-04-20T02:16:06.008Z,2.6
2017-04-20T02:16:16.190Z,2.6
2017-04-20T02:16:26.184Z,2.6
2017-04-20T02:16:35.850Z,2.7
2017-04-20T02:16:45.835Z,2.6
2017-04-20T02:16:56.189Z,2.7
2017-04-20T02:17:05.826Z,2.6
2017-04-20T02:17:16.284Z,2.6
2017-04-20T02:17:25.809Z,2.6
2017-04-20T02:17:36.388Z,2.6
2017-04-20T02:17:46.133Z,2.7
2017-04-20T02:17:56.130Z,2.7
2017-04-20T02:18:05.783Z,2.7
2017-04-20T02:18:15.781Z,2.7
2017-04-20T02:18:26.518Z,2.6
2017-04-20T02:18:36.102Z,2.6
2017-04-20T02:18:46.098Z,2.6
2017-04-20T02:18:55.415Z,2.6
2017-04-20T02:19:06.081Z,2.6
2017-04-20T02:19:16.076Z,2.6
2017-04-20T02:19:26.067Z,2.6